Time;durP1;ratioP1;P1;durP2;ratioP2;P2;SDS_P1;SDS_P2;PMS_P1;PMS_P2;Temp;Humidity;BMP_temperature;BMP_pressure;BME280_temperature;BME280_humidity;BME280_pressure;Samples;Min_cycle;Max_cycle;Signal;HPM_P1;HPM_P2
2021/03/17 00:02:33;;;;;;;2.70;1.52;;;3.10;92.80;;;;;;5034837;28;20327;-60
2021/03/17 00:05:25;;;;;;;6.93;2.42;;;3.00;93.10;;;;;;5043437;28;20583;-60
2021/03/17 00:08:14;;;;;;;2.70;1.42;;;2.80;93.20;;;;;;5044133;28;20080;-60
2021/03/17 00:11:00;;;;;;;3.03;1.60;;;2.70;93.40;;;;;;5043804;28;20045;-60
2021/03/17 00:13:50;;;;;;;2.88;1.67;;;2.70;93.80;;;;;;5044892;28;20045;-60
2021/03/17 00:16:36;;;;;;;6.85;1.48;;;2.60;94.00;;;;;;5043653;28;21055;-61
2021/03/17 00:19:25;;;;;;;2.83;1.50;;;2.60;94.10;;;;;;5047377;28;20821;-60
2021/03/17 00:22:11;;;;;;;5.25;2.08;;;2.60;94.00;;;;;;5043376;28;20052;-60
2021/03/17 00:24:57;;;;;;;4.97;2.03;;;2.60;94.10;;;;;;5050271;28;20120;-60
2021/03/17 00:27:43;;;;;;;3.70;1.60;;;2.60;94.20;;;;;;5052223;28;20048;-61
2021/03/17 00:30:35;;;;;;;4.88;2.33;;;2.60;94.30;;;;;;5042090;28;20345;-59
2021/03/17 00:33:21;;;;;;;5.30;2.03;;;2.60;94.20;;;;;;5038068;28;20621;-59
2021/03/17 00:36:07;;;;;;;4.32;1.90;;;2.60;94.00;;;;;;5050687;28;20045;-60
2021/03/17 00:38:53;;;;;;;3.22;1.65;;;2.60;93.90;;;;;;5050421;28;20063;-60
2021/03/17 00:41:39;;;;;;;4.10;1.77;;;2.60;93.80;;;;;;5050135;28;20045;-60
2021/03/17 00:44:25;;;;;;;5.88;2.63;;;2.60;93.80;;;;;;5030833;28;21104;-60
2021/03/17 00:47:12;;;;;;;5.43;2.25;;;2.50;93.70;;;;;;5048713;28;20060;-60
2021/03/17 00:49:39;;;;;;;8.57;2.10;;;2.60;93.80;;;;;;5050146;28;20060;-60
2021/03/17 00:52:06;;;;;;;3.72;1.60;;;2.50;93.60;;;;;;5049000;28;20045;-59
2021/03/17 00:54:53;;;;;;;5.15;1.95;;;2.40;93.60;;;;;;5048992;28;20061;-59
2021/03/17 00:57:42;;;;;;;4.45;2.38;;;2.30;93.70;;;;;;5044744;28;20080;-60
2021/03/17 01:00:12;;;;;;;5.32;2.47;;;2.20;93.80;;;;;;5027563;28;20049;-60
2021/03/17 01:02:41;;;;;;;4.47;2.15;;;2.10;93.90;;;;;;5031015;28;20042;-60
2021/03/17 01:05:09;;;;;;;7.97;2.83;;;2.00;94.10;;;;;;5033209;28;20131;-60
2021/03/17 01:07:37;;;;;;;3.50;1.92;;;1.90;94.20;;;;;;5049598;28;20127;-60
2021/03/17 01:10:11;;;;;;;8.32;2.65;;;1.70;94.40;;;;;;5050056;28;20049;-61
2021/03/17 01:12:41;;;;;;;6.20;2.35;;;1.70;94.50;;;;;;5052214;28;20282;-59
2021/03/17 01:15:11;;;;;;;5.70;2.22;;;1.60;94.70;;;;;;5050001;28;20065;-60
2021/03/17 01:17:38;;;;;;;5.53;2.97;;;1.50;94.70;;;;;;5050390;28;20320;-59
2021/03/17 01:20:10;;;;;;;9.85;3.00;;;1.40;94.80;;;;;;5043829;28;20089;-60
2021/03/17 01:22:37;;;;;;;5.85;2.42;;;1.40;95.00;;;;;;5029596;28;20070;-60
2021/03/17 01:25:10;;;;;;;12.27;2.60;;;1.30;95.10;;;;;;5030818;28;20141;-60
2021/03/17 01:27:37;;;;;;;6.32;2.80;;;1.20;95.20;;;;;;5038740;28;20205;-59
2021/03/17 01:30:07;;;;;;;5.47;2.03;;;1.20;95.20;;;;;;5031447;28;20045;-59
2021/03/17 01:32:34;;;;;;;6.03;3.13;;;1.10;95.10;;;;;;5045393;28;20053;-59
2021/03/17 01:35:02;;;;;;;7.50;3.38;;;1.00;95.10;;;;;;5052551;28;20099;-61
2021/03/17 01:37:30;;;;;;;6.28;2.88;;;0.90;95.20;;;;;;5055900;28;20064;-61
2021/03/17 01:39:57;;;;;;;7.30;2.47;;;0.90;95.40;;;;;;5046076;28;20050;-61
2021/03/17 01:42:24;;;;;;;5.35;2.83;;;1.00;95.50;;;;;;5047825;28;20061;-60
2021/03/17 01:44:51;;;;;;;6.38;2.85;;;1.00;95.30;;;;;;5046726;28;20056;-61
2021/03/17 01:47:19;;;;;;;8.85;3.47;;;0.90;95.20;;;;;;5036741;28;20061;-60
2021/03/17 01:49:46;;;;;;;6.20;2.95;;;0.90;95.20;;;;;;5035204;28;20053;-60
2021/03/17 01:52:15;;;;;;;6.00;2.50;;;0.80;95.10;;;;;;5034659;28;20053;-60
2021/03/17 01:54:44;;;;;;;6.10;2.83;;;0.70;95.00;;;;;;5035475;28;20096;-60
2021/03/17 01:57:12;;;;;;;9.27;3.92;;;0.70;95.10;;;;;;5035266;28;20052;-60
2021/03/17 01:59:40;;;;;;;7.70;3.30;;;0.70;95.20;;;;;;5034576;28;20061;-59
2021/03/17 02:02:07;;;;;;;13.18;3.50;;;0.60;95.30;;;;;;5038921;28;20056;-60
2021/03/17 02:04:35;;;;;;;8.40;3.42;;;0.60;95.40;;;;;;5055072;28;20041;-60
2021/03/17 02:07:04;;;;;;;9.50;3.70;;;0.60;95.60;;;;;;5037325;28;20248;-60
2021/03/17 02:09:31;;;;;;;4.63;2.40;;;0.50;95.60;;;;;;5035340;28;20278;-61
2021/03/17 02:12:08;;;;;;;6.90;3.33;;;0.50;95.60;;;;;;5051555;28;20136;-60
2021/03/17 02:14:46;;;;;;;9.13;2.63;;;0.40;95.70;;;;;;5053704;28;20053;-60
2021/03/17 02:17:19;;;;;;;7.88;3.10;;;0.50;95.90;;;;;;5053604;28;20045;-60
2021/03/17 02:20:19;;;;;;;8.00;3.83;;;0.50;95.90;;;;;;5047041;28;20049;-60
2021/03/17 02:22:49;;;;;;;9.15;4.22;;;0.60;96.00;;;;;;5050470;28;20378;-60
2021/03/17 02:25:58;;;;;;;8.65;3.00;;;0.70;96.10;;;;;;5031568;28;20370;-60
2021/03/17 02:28:34;;;;;;;9.32;4.10;;;0.90;96.00;;;;;;5033149;28;20556;-60
2021/03/17 02:31:42;;;;;;;6.50;3.65;;;1.00;95.40;;;;;;5032252;28;20048;-60
2021/03/17 02:34:19;;;;;;;7.03;3.90;;;1.00;95.20;;;;;;5019437;28;20053;-60
2021/03/17 02:36:50;;;;;;;6.65;2.50;;;1.00;95.00;;;;;;5032484;28;20049;-60
2021/03/17 02:39:23;;;;;;;6.88;3.38;;;1.00;94.60;;;;;;5031425;28;20382;-60
2021/03/17 02:41:57;;;;;;;5.35;3.35;;;1.00;94.20;;;;;;5031274;28;20264;-61
2021/03/17 02:44:26;;;;;;;7.72;3.25;;;0.90;94.10;;;;;;5051436;28;20256;-59
2021/03/17 02:46:56;;;;;;;8.00;3.72;;;1.00;94.20;;;;;;5042939;28;20344;-60
2021/03/17 02:49:26;;;;;;;9.93;3.70;;;0.90;93.90;;;;;;5040449;28;20042;-60
2021/03/17 02:51:57;;;;;;;6.63;3.00;;;1.00;93.70;;;;;;5041970;28;20113;-61
2021/03/17 02:54:26;;;;;;;5.28;2.90;;;0.90;93.50;;;;;;5036737;28;20598;-60
2021/03/17 02:56:57;;;;;;;7.50;3.45;;;1.00;93.50;;;;;;5044367;28;20057;-61
2021/03/17 02:59:25;;;;;;;;;;;1.00;93.30;;;;;;5047809;28;20038;-60
2021/03/17 03:01:54;;;;;;;6.93;3.78;;;1.10;93.10;;;;;;5027768;28;19929;-60
2021/03/17 03:04:28;;;;;;;9.50;4.30;;;1.10;93.50;;;;;;5016756;28;20053;-60
2021/03/17 03:06:57;;;;;;;12.65;4.47;;;1.20;93.60;;;;;;5031357;28;20300;-61
2021/03/17 03:09:26;;;;;;;9.20;4.32;;;1.20;93.90;;;;;;5034021;28;20046;-60
2021/03/17 03:11:57;;;;;;;10.82;4.57;;;1.20;93.90;;;;;;5030389;28;20309;-60
2021/03/17 03:14:28;;;;;;;10.07;4.25;;;1.20;94.50;;;;;;5040020;28;20072;-61
2021/03/17 03:17:03;;;;;;;10.85;4.90;;;1.30;94.80;;;;;;5036186;28;20125;-60
2021/03/17 03:19:38;;;;;;;13.80;4.72;;;1.40;94.60;;;;;;5048344;28;20042;-59
2021/03/17 03:22:11;;;;;;;12.57;4.88;;;1.50;94.40;;;;;;5051713;28;20045;-60
2021/03/17 03:24:38;;;;;;;10.32;5.35;;;1.40;94.10;;;;;;5047619;28;20060;-59
2021/03/17 03:27:07;;;;;;;6.90;3.47;;;1.30;94.50;;;;;;5043768;28;20046;-59
2021/03/17 03:29:41;;;;;;;9.45;4.72;;;1.50;95.20;;;;;;5048130;28;20057;-60
2021/03/17 03:32:11;;;;;;;9.65;4.65;;;1.70;94.70;;;;;;5054456;28;20061;-60
2021/03/17 03:34:39;;;;;;;9.40;4.65;;;1.70;94.20;;;;;;5052129;28;20049;-59
2021/03/17 03:37:07;;;;;;;13.77;4.90;;;1.70;94.00;;;;;;5048323;28;20151;-59
2021/03/17 03:39:35;;;;;;;10.40;4.03;;;1.70;94.00;;;;;;5050227;28;20095;-60
2021/03/17 03:42:02;;;;;;;16.98;5.57;;;1.80;94.80;;;;;;5043738;28;20068;-60
2021/03/17 03:44:33;;;;;;;11.40;5.10;;;1.90;94.20;;;;;;5040076;28;20054;-60
2021/03/17 03:47:02;;;;;;;10.73;5.07;;;1.80;94.40;;;;;;5050951;28;20064;-60
2021/03/17 03:49:34;;;;;;;10.40;5.25;;;1.80;94.20;;;;;;5045360;28;20087;-60
2021/03/17 03:52:09;;;;;;;11.47;5.17;;;1.80;93.80;;;;;;5046765;28;20049;-60
2021/03/17 03:54:42;;;;;;;11.55;4.80;;;1.70;93.70;;;;;;5046342;28;20322;-60
2021/03/17 03:57:17;;;;;;;10.82;5.25;;;1.60;94.10;;;;;;5044134;28;20041;-60
2021/03/17 03:59:48;;;;;;;14.80;5.50;;;1.70;94.40;;;;;;5045376;28;20077;-60
2021/03/17 04:02:27;;;;;;;10.63;4.88;;;1.70;94.50;;;;;;5040179;28;20045;-60
2021/03/17 04:04:59;;;;;;;10.30;4.85;;;1.70;94.20;;;;;;5051233;28;20072;-60
2021/03/17 04:07:29;;;;;;;12.15;5.43;;;1.70;94.40;;;;;;5051987;28;20275;-60
2021/03/17 04:10:03;;;;;;;9.88;4.35;;;1.70;94.20;;;;;;5050066;28;20053;-60
2021/03/17 04:12:35;;;;;;;20.95;5.45;;;1.70;94.50;;;;;;5037857;28;20049;-60
2021/03/17 04:15:07;;;;;;;12.43;5.78;;;1.70;94.20;;;;;;5029262;28;20046;-60
2021/03/17 04:17:38;;;;;;;10.70;5.10;;;1.80;94.40;;;;;;5030788;28;20105;-60
2021/03/17 04:20:11;;;;;;;10.63;4.72;;;1.70;94.00;;;;;;5040371;28;20075;-60
2021/03/17 04:22:40;;;;;;;12.98;4.63;;;1.70;94.40;;;;;;5042630;28;20140;-60
2021/03/17 04:25:10;;;;;;;9.13;4.75;;;1.70;94.40;;;;;;5047747;28;20043;-60
2021/03/17 04:27:39;;;;;;;11.20;5.32;;;1.90;94.50;;;;;;5044822;28;20056;-60
2021/03/17 04:30:13;;;;;;;10.30;4.38;;;2.00;94.00;;;;;;5033311;28;20065;-60
2021/03/17 04:32:45;;;;;;;10.18;5.55;;;1.90;93.80;;;;;;5041617;28;20090;-60
2021/03/17 04:35:17;;;;;;;9.95;4.40;;;1.80;93.80;;;;;;5049701;28;20037;-60
2021/03/17 04:37:48;;;;;;;8.75;4.20;;;1.70;94.00;;;;;;5035279;28;20087;-60
2021/03/17 04:40:20;;;;;;;16.83;4.63;;;1.70;94.10;;;;;;5050703;28;20127;-61
2021/03/17 04:42:50;;;;;;;9.65;3.92;;;1.70;94.20;;;;;;5040080;28;20064;-60
2021/03/17 04:45:20;;;;;;;14.85;6.28;;;1.70;94.10;;;;;;5035042;28;20594;-60
2021/03/17 04:47:51;;;;;;;9.30;4.22;;;1.70;94.10;;;;;;5040816;28;20279;-60
2021/03/17 04:50:21;;;;;;;32.08;5.70;;;1.80;94.00;;;;;;5049734;28;20397;-61
2021/03/17 04:52:50;;;;;;;7.50;4.20;;;1.70;93.90;;;;;;5050418;28;20080;-60
2021/03/17 04:55:17;;;;;;;41.88;4.50;;;1.70;93.70;;;;;;5048169;28;20340;-60
2021/03/17 04:57:47;;;;;;;11.07;4.82;;;1.70;93.70;;;;;;5035608;28;20057;-60
2021/03/17 05:00:20;;;;;;;10.93;4.80;;;1.80;94.10;;;;;;5037634;28;20250;-60
2021/03/17 05:02:53;;;;;;;7.22;3.63;;;1.70;93.30;;;;;;5051478;28;20041;-60
2021/03/17 05:05:30;;;;;;;10.52;5.10;;;1.60;94.30;;;;;;5037712;28;20558;-60
2021/03/17 05:07:59;;;;;;;9.35;4.65;;;1.50;93.80;;;;;;5051076;28;20044;-60
2021/03/17 05:10:28;;;;;;;9.35;4.93;;;1.40;94.00;;;;;;5047020;28;20048;-60
2021/03/17 05:12:55;;;;;;;11.07;5.30;;;1.40;94.50;;;;;;5047499;28;20112;-59
2021/03/17 05:15:23;;;;;;;8.77;3.97;;;1.40;94.90;;;;;;5043558;28;20101;-59
2021/03/17 05:17:52;;;;;;;8.82;3.92;;;1.50;94.80;;;;;;5043655;28;20087;-60
2021/03/17 05:20:22;;;;;;;7.80;3.70;;;1.60;94.60;;;;;;5038739;28;20677;-60
2021/03/17 05:22:50;;;;;;;10.00;4.10;;;1.50;94.60;;;;;;5034608;28;20057;-60
2021/03/17 05:25:23;;;;;;;10.13;5.32;;;1.40;94.40;;;;;;5050315;28;21218;-59
2021/03/17 05:27:53;;;;;;;11.80;4.53;;;1.40;95.00;;;;;;5043187;28;20053;-60
2021/03/17 05:30:22;;;;;;;24.13;7.38;;;1.40;94.50;;;;;;5041621;28;20466;-60
2021/03/17 05:32:51;;;;;;;15.73;6.90;;;1.50;94.70;;;;;;5040160;28;20053;-59
2021/03/17 05:35:18;;;;;;;13.70;5.72;;;1.40;94.30;;;;;;5048456;28;21715;-60
2021/03/17 05:37:53;;;;;;;12.05;5.60;;;1.50;94.40;;;;;;5042585;28;20054;-60
2021/03/17 05:40:26;;;;;;;10.65;5.20;;;1.50;94.60;;;;;;5043057;28;20312;-59
2021/03/17 05:42:55;;;;;;;26.15;7.13;;;1.60;94.40;;;;;;5033185;28;20048;-60
2021/03/17 05:45:22;;;;;;;10.20;5.25;;;1.50;94.20;;;;;;5031230;28;20054;-60
2021/03/17 05:47:51;;;;;;;14.75;5.35;;;1.50;94.20;;;;;;5037669;28;20045;-59
2021/03/17 05:50:20;;;;;;;10.68;5.40;;;1.50;94.00;;;;;;5039404;28;21112;-59
2021/03/17 05:52:47;;;;;;;10.57;4.68;;;1.60;94.10;;;;;;5047370;28;20336;-60
2021/03/17 05:55:16;;;;;;;12.45;5.07;;;1.70;94.10;;;;;;5038878;28;20062;-60
2021/03/17 05:57:46;;;;;;;11.23;5.20;;;1.80;94.20;;;;;;5046516;28;20261;-60
2021/03/17 06:00:16;;;;;;;10.85;5.07;;;1.80;93.30;;;;;;5026874;28;20049;-60
2021/03/17 06:02:43;;;;;;;9.48;3.67;;;1.70;93.40;;;;;;5011262;28;20245;-60
2021/03/17 06:05:13;;;;;;;8.15;3.53;;;1.60;93.50;;;;;;5029702;28;20034;-60
2021/03/17 06:07:53;;;;;;;9.07;4.93;;;1.50;93.70;;;;;;5028012;28;20372;-60
2021/03/17 06:10:26;;;;;;;8.50;4.10;;;1.50;93.50;;;;;;5029008;28;20393;-60
2021/03/17 06:12:59;;;;;;;8.90;3.78;;;1.50;93.40;;;;;;5043292;28;20080;-61
2021/03/17 06:15:28;;;;;;;10.38;4.93;;;1.60;93.30;;;;;;5044903;28;20061;-60
2021/03/17 06:17:59;;;;;;;10.57;4.82;;;1.70;92.90;;;;;;5031379;28;20067;-60
2021/03/17 06:20:27;;;;;;;8.77;4.90;;;1.70;92.70;;;;;;5043780;28;20048;-60
2021/03/17 06:23:01;;;;;;;8.98;3.78;;;1.70;92.40;;;;;;5035982;28;20053;-59
2021/03/17 06:25:29;;;;;;;7.85;4.25;;;1.80;92.40;;;;;;5038261;28;20053;-61
2021/03/17 06:27:58;;;;;;;12.63;5.07;;;1.70;92.50;;;;;;5029610;28;20045;-60
2021/03/17 06:30:29;;;;;;;11.13;5.03;;;1.90;92.60;;;;;;5031642;28;20053;-60
2021/03/17 06:32:56;;;;;;;10.48;5.25;;;1.80;92.30;;;;;;5031960;28;20321;-60
2021/03/17 06:35:26;;;;;;;13.13;6.18;;;1.80;92.40;;;;;;5043822;28;20048;-60
2021/03/17 06:37:54;;;;;;;11.90;5.05;;;1.70;92.50;;;;;;5043507;28;20254;-60
2021/03/17 06:40:28;;;;;;;12.20;5.72;;;1.90;92.60;;;;;;5033065;28;20060;-60
2021/03/17 06:43:05;;;;;;;10.65;5.45;;;2.00;92.10;;;;;;5038801;28;20045;-60
2021/03/17 06:45:39;;;;;;;9.73;5.40;;;2.00;92.00;;;;;;5033498;28;20280;-60
2021/03/17 06:48:21;;;;;;;12.23;5.30;;;2.00;91.40;;;;;;5051585;28;20049;-59
2021/03/17 06:51:05;;;;;;;9.65;4.57;;;2.20;91.90;;;;;;5039257;28;20049;-60
2021/03/17 06:53:37;;;;;;;11.60;4.95;;;2.20;91.80;;;;;;5036034;28;20395;-60
2021/03/17 06:56:19;;;;;;;11.80;4.55;;;2.20;91.30;;;;;;5017303;28;20108;-60
2021/03/17 06:58:49;;;;;;;9.88;4.53;;;2.20;91.80;;;;;;5050363;28;20574;-60
2021/03/17 07:01:36;;;;;;;10.02;4.72;;;2.20;90.90;;;;;;5050702;28;20359;-60
2021/03/17 07:04:09;;;;;;;12.90;4.57;;;2.20;90.70;;;;;;5034147;28;20081;-60
2021/03/17 07:06:43;;;;;;;11.68;5.43;;;2.30;91.50;;;;;;5032697;28;20050;-60
2021/03/17 07:09:28;;;;;;;10.15;4.80;;;2.20;90.80;;;;;;5109909;27;20403;-59
2021/03/17 07:12:06;;;;;;;11.68;4.43;;;2.30;91.00;;;;;;5102012;27;20459;-60
2021/03/17 07:14:38;;;;;;;9.80;4.70;;;2.30;90.80;;;;;;5102468;27;20342;-60
2021/03/17 07:17:25;;;;;;;8.60;4.75;;;2.40;90.50;;;;;;5102277;27;20226;-60
2021/03/17 07:19:55;;;;;;;14.50;5.35;;;2.40;90.30;;;;;;5101591;27;20052;-60
2021/03/17 07:22:26;;;;;;;9.45;5.43;;;2.50;90.80;;;;;;5103586;27;20048;-60
2021/03/17 07:25:00;;;;;;;12.52;5.18;;;2.60;90.30;;;;;;5101170;27;20097;-59
2021/03/17 07:27:33;;;;;;;9.88;4.88;;;2.60;89.70;;;;;;5084202;28;20047;-60
2021/03/17 07:30:12;;;;;;;11.07;4.63;;;2.70;89.60;;;;;;5080993;28;20095;-61
2021/03/17 07:32:55;;;;;;;13.35;5.97;;;2.80;89.90;;;;;;5080878;28;20064;-60
2021/03/17 07:35:29;;;;;;;12.45;5.22;;;3.00;89.70;;;;;;5073276;28;20165;-60
2021/03/17 07:38:07;;;;;;;9.93;5.68;;;3.10;89.50;;;;;;5081564;28;20048;-60
2021/03/17 07:40:37;;;;;;;10.20;5.15;;;3.20;88.80;;;;;;5083019;28;20052;-60
2021/03/17 07:43:04;;;;;;;10.75;5.28;;;3.10;88.70;;;;;;5081151;28;20106;-61
2021/03/17 07:45:34;;;;;;;9.90;4.75;;;3.20;89.50;;;;;;5082081;28;20048;-60
2021/03/17 07:48:05;;;;;;;11.32;4.50;;;3.30;88.80;;;;;;5083927;28;20068;-59
2021/03/17 07:50:33;;;;;;;9.32;4.70;;;3.40;88.20;;;;;;5082603;28;20151;-60
2021/03/17 07:53:02;;;;;;;8.73;4.93;;;3.60;88.10;;;;;;5080914;28;20135;-60
2021/03/17 07:55:34;;;;;;;11.27;4.07;;;3.60;87.30;;;;;;5074912;28;20083;-59
2021/03/17 07:58:02;;;;;;;9.82;4.57;;;3.70;87.00;;;;;;5080743;28;20379;-60
2021/03/17 08:00:33;;;;;;;10.40;5.70;;;3.70;86.90;;;;;;5076519;28;20059;-60
2021/03/17 08:03:01;;;;;;;9.65;5.05;;;3.70;86.80;;;;;;5082589;28;20154;-60
2021/03/17 08:05:30;;;;;;;8.90;5.50;;;3.90;86.60;;;;;;5076378;28;20067;-60
2021/03/17 08:07:58;;;;;;;19.58;7.63;;;4.00;85.90;;;;;;5080644;28;20060;-60
2021/03/17 08:10:26;;;;;;;13.85;5.10;;;4.00;85.90;;;;;;5079619;28;20053;-60
2021/03/17 08:12:53;;;;;;;12.02;4.90;;;4.10;86.30;;;;;;5078108;28;20041;-60
2021/03/17 08:15:23;;;;;;;12.57;4.00;;;4.30;85.70;;;;;;5084801;27;20076;-60
2021/03/17 08:17:50;;;;;;;9.13;4.25;;;4.20;85.50;;;;;;5085320;28;20047;-60
2021/03/17 08:20:21;;;;;;;8.60;4.00;;;4.30;85.30;;;;;;5069209;28;20418;-60
2021/03/17 08:22:50;;;;;;;11.00;4.55;;;4.40;85.00;;;;;;5069774;28;20048;-60
2021/03/17 08:25:37;;;;;;;9.25;4.40;;;4.60;84.50;;;;;;5067525;28;20146;-60
2021/03/17 08:28:20;;;;;;;13.95;5.13;;;4.30;84.70;;;;;;5064691;28;20324;-60
2021/03/17 08:30:48;;;;;;;13.27;4.68;;;4.40;85.10;;;;;;5064733;28;20048;-59
2021/03/17 08:33:32;;;;;;;10.55;4.18;;;4.60;84.00;;;;;;5069864;28;20052;-61
2021/03/17 08:36:05;;;;;;;11.40;4.00;;;4.60;83.60;;;;;;5069743;28;20116;-60
2021/03/17 08:38:48;;;;;;;9.95;5.55;;;4.80;83.40;;;;;;5067927;28;20052;-60
2021/03/17 08:41:16;;;;;;;10.00;4.00;;;4.50;82.50;;;;;;5067477;28;20056;-60
2021/03/17 08:43:48;;;;;;;7.63;4.03;;;4.50;82.30;;;;;;5068651;28;20360;-60
2021/03/17 08:46:20;;;;;;;12.77;5.07;;;4.30;84.10;;;;;;5069338;28;20372;-60
2021/03/17 08:48:55;;;;;;;11.52;5.03;;;4.40;84.30;;;;;;5071260;28;20335;-59
2021/03/17 08:52:04;;;;;;;7.47;3.40;;;4.50;84.50;;;;;;5068205;28;20592;-60
2021/03/17 08:54:54;;;;;;;10.93;3.97;;;4.50;83.60;;;;;;5068451;28;20700;-60
2021/03/17 08:57:23;;;;;;;8.00;3.28;;;4.80;84.30;;;;;;5068408;28;20287;-60
2021/03/17 08:59:52;;;;;;;9.27;3.58;;;4.70;81.90;;;;;;5068476;28;20075;-60
2021/03/17 09:02:45;;;;;;;11.07;3.80;;;4.60;82.70;;;;;;5063061;28;20883;-60
2021/03/17 09:05:20;;;;;;;9.52;3.83;;;4.70;82.20;;;;;;5056286;28;20115;-60
2021/03/17 09:08:08;;;;;;;12.63;3.90;;;5.00;82.20;;;;;;5069321;28;20048;-60
2021/03/17 09:10:47;;;;;;;8.65;2.85;;;5.20;82.30;;;;;;5068877;28;20399;-60
2021/03/17 09:13:15;;;;;;;9.43;3.67;;;5.40;81.00;;;;;;5067987;28;20400;-60
2021/03/17 09:15:48;;;;;;;8.93;4.15;;;5.40;79.80;;;;;;5066655;28;20090;-59
2021/03/17 09:18:20;;;;;;;10.00;3.95;;;5.30;80.50;;;;;;5065968;28;20112;-60
2021/03/17 09:20:50;;;;;;;7.88;3.42;;;5.50;80.50;;;;;;5069857;28;20348;-60
2021/03/17 09:23:21;;;;;;;8.57;4.07;;;5.20;80.00;;;;;;5068157;28;21049;-60
2021/03/17 09:25:49;;;;;;;8.32;3.28;;;5.20;80.50;;;;;;5063545;28;20052;-60
2021/03/17 09:28:23;;;;;;;8.10;3.90;;;5.20;81.50;;;;;;5067850;28;20381;-59
2021/03/17 09:30:56;;;;;;;9.32;4.07;;;5.20;81.20;;;;;;5068289;28;20040;-60
2021/03/17 09:33:27;;;;;;;11.00;4.18;;;5.40;81.10;;;;;;5065591;28;20529;-60
2021/03/17 09:35:57;;;;;;;9.13;3.95;;;5.60;81.10;;;;;;5067159;28;20052;-60
2021/03/17 09:38:26;;;;;;;8.25;4.13;;;5.90;80.30;;;;;;5067350;28;20096;-60
2021/03/17 09:41:02;;;;;;;12.15;4.30;;;6.10;79.40;;;;;;5064772;28;20040;-60
2021/03/17 09:43:37;;;;;;;21.23;6.47;;;6.10;78.10;;;;;;5067157;28;20093;-60
2021/03/17 09:46:20;;;;;;;11.40;4.85;;;6.20;77.90;;;;;;5067320;28;20048;-60
2021/03/17 09:48:51;;;;;;;9.55;4.30;;;6.20;77.50;;;;;;5054646;28;20205;-60
2021/03/17 09:51:21;;;;;;;11.20;3.83;;;6.30;77.30;;;;;;5066351;28;21049;-60
2021/03/17 09:53:49;;;;;;;10.00;4.00;;;6.20;77.70;;;;;;5064574;28;20072;-60
2021/03/17 09:56:17;;;;;;;8.20;2.33;;;6.50;77.60;;;;;;5063197;28;21741;-60
2021/03/17 09:58:44;;;;;;;4.82;2.47;;;6.70;73.10;;;;;;5065397;28;20040;-60
2021/03/17 10:01:13;;;;;;;7.80;3.05;;;6.80;75.90;;;;;;5063116;28;20065;-59
2021/03/17 10:03:44;;;;;;;6.88;2.67;;;6.80;72.90;;;;;;5066783;28;20060;-60
2021/03/17 10:06:12;;;;;;;6.28;2.55;;;6.80;73.40;;;;;;5067547;28;20127;-59
2021/03/17 10:08:40;;;;;;;8.13;3.03;;;6.90;74.30;;;;;;5066593;28;20071;-60
2021/03/17 10:11:13;;;;;;;8.57;2.65;;;7.20;73.10;;;;;;5064174;28;20274;-59
2021/03/17 10:13:41;;;;;;;8.05;2.45;;;6.90;71.30;;;;;;5065914;28;20052;-59
2021/03/17 10:16:09;;;;;;;3.97;1.83;;;6.90;73.00;;;;;;5063947;28;20052;-60
2021/03/17 10:18:37;;;;;;;5.95;2.20;;;7.10;71.20;;;;;;5065375;28;20078;-60
2021/03/17 10:21:06;;;;;;;4.57;1.58;;;7.50;70.60;;;;;;5065907;28;20271;-59
2021/03/17 10:23:48;;;;;;;4.75;1.52;;;7.60;67.40;;;;;;5066365;28;20227;-60
2021/03/17 10:26:19;;;;;;;10.82;2.88;;;7.40;68.20;;;;;;5068110;28;20072;-60
2021/03/17 10:28:47;;;;;;;3.40;2.10;;;7.60;67.50;;;;;;5067037;28;20056;-60
2021/03/17 10:31:15;;;;;;;4.78;1.50;;;7.50;67.50;;;;;;5068850;28;20146;-60
2021/03/17 10:33:42;;;;;;;4.38;1.60;;;7.30;67.60;;;;;;5081018;28;20052;-60
2021/03/17 10:36:10;;;;;;;3.67;1.55;;;7.10;66.30;;;;;;5067513;28;20044;-60
2021/03/17 10:38:38;;;;;;;6.13;2.20;;;7.00;67.40;;;;;;5068407;28;20041;-59
2021/03/17 10:41:05;;;;;;;3.92;1.95;;;6.90;68.10;;;;;;5068116;28;20067;-59
2021/03/17 10:43:33;;;;;;;3.75;1.10;;;7.00;67.80;;;;;;5069485;28;20048;-59
2021/03/17 10:46:03;;;;;;;5.13;2.80;;;7.10;64.90;;;;;;5067191;28;20072;-60
2021/03/17 10:48:31;;;;;;;6.30;1.95;;;7.10;65.80;;;;;;5069671;28;20232;-61
2021/03/17 10:51:07;;;;;;;3.55;1.55;;;7.10;63.60;;;;;;5065834;28;20067;-60
2021/03/17 10:53:36;;;;;;;2.97;1.23;;;7.00;64.00;;;;;;5068095;28;20120;-60
2021/03/17 10:56:15;;;;;;;6.00;2.38;;;7.20;63.90;;;;;;5067360;28;20075;-60
2021/03/17 10:58:42;;;;;;;5.35;1.80;;;7.20;61.90;;;;;;5064632;28;20044;-60
2021/03/17 11:01:23;;;;;;;4.20;2.03;;;7.30;60.10;;;;;;5062724;28;20666;-60
2021/03/17 11:04:07;;;;;;;7.63;1.98;;;7.20;60.30;;;;;;5068149;28;20053;-60
2021/03/17 11:06:34;;;;;;;14.15;5.05;;;7.20;62.00;;;;;;5066576;28;20116;-60
2021/03/17 11:09:15;;;;;;;8.10;3.70;;;7.30;61.20;;;;;;5116027;27;20365;-60
2021/03/17 11:11:53;;;;;;;2.58;1.38;;;7.60;59.60;;;;;;5098214;28;20044;-60
2021/03/17 11:14:36;;;;;;;4.85;1.52;;;8.20;57.60;;;;;;5097648;28;20052;-59
2021/03/17 11:17:10;;;;;;;3.33;1.17;;;8.50;54.60;;;;;;5095653;28;20052;-60
2021/03/17 11:19:37;;;;;;;5.70;2.10;;;8.80;54.70;;;;;;5105500;28;20047;-60
2021/03/17 11:22:04;;;;;;;6.72;2.13;;;8.80;52.10;;;;;;5094756;28;20064;-60
2021/03/17 11:24:33;;;;;;;3.35;1.17;;;8.60;53.90;;;;;;5094472;28;20040;-60
2021/03/17 11:27:00;;;;;;;3.13;1.05;;;8.70;52.30;;;;;;5091956;28;20221;-60
2021/03/17 11:29:33;;;;;;;4.90;1.50;;;8.50;51.80;;;;;;5086704;28;20081;-60
2021/03/17 11:32:07;;;;;;;6.55;2.25;;;8.10;51.60;;;;;;5088091;28;20045;-59
2021/03/17 11:34:34;;;;;;;3.70;1.80;;;7.70;52.80;;;;;;5083563;28;20044;-59
2021/03/17 11:37:05;;;;;;;2.72;0.63;;;7.50;52.60;;;;;;5093474;28;20538;-60
2021/03/17 11:39:33;;;;;;;3.63;0.70;;;7.10;54.40;;;;;;5086877;28;20329;-60
2021/03/17 11:42:00;;;;;;;1.73;0.88;;;6.90;53.90;;;;;;5095992;28;20056;-60
2021/03/17 11:44:29;;;;;;;1.92;0.70;;;6.90;54.40;;;;;;5092618;28;20052;-60
2021/03/17 11:46:58;;;;;;;3.03;1.15;;;6.80;54.60;;;;;;5095398;28;20059;-60
2021/03/17 11:49:25;;;;;;;4.80;1.48;;;6.80;54.90;;;;;;5094429;28;20066;-60
2021/03/17 11:51:52;;;;;;;2.47;0.73;;;6.70;54.50;;;;;;5093629;28;20754;-60
2021/03/17 11:54:20;;;;;;;5.18;0.98;;;6.70;53.10;;;;;;5093936;28;20048;-59
2021/03/17 11:56:48;;;;;;;3.00;0.93;;;6.80;53.50;;;;;;5093695;28;20044;-60
2021/03/17 11:59:21;;;;;;;1.50;0.43;;;6.80;54.00;;;;;;5101736;28;20228;-59
2021/03/17 12:01:48;;;;;;;4.60;0.65;;;6.90;53.40;;;;;;5088614;28;20048;-59
2021/03/17 12:04:15;;;;;;;0.90;0.40;;;6.90;54.00;;;;;;5096757;28;20059;-60
2021/03/17 12:06:43;;;;;;;3.47;0.52;;;6.80;54.40;;;;;;5096880;28;20363;-60
2021/03/17 12:09:10;;;;;;;4.50;0.82;;;6.90;53.70;;;;;;5095669;28;20378;-60
2021/03/17 12:11:39;;;;;;;2.35;0.80;;;6.80;53.60;;;;;;5099027;28;20047;-60
2021/03/17 12:14:08;;;;;;;2.92;1.10;;;6.90;53.90;;;;;;5098547;28;20054;-59
2021/03/17 12:16:35;;;;;;;4.43;1.23;;;7.00;53.90;;;;;;5097977;28;20047;-59
2021/03/17 12:19:03;;;;;;;1.50;0.60;;;7.20;53.40;;;;;;5093784;28;20221;-60
2021/03/17 12:21:30;;;;;;;2.45;0.50;;;7.40;50.90;;;;;;5084758;28;20036;-59
2021/03/17 12:23:57;;;;;;;1.88;0.70;;;7.60;49.40;;;;;;5084105;28;20049;-59
2021/03/17 12:26:25;;;;;;;2.45;0.55;;;7.80;51.00;;;;;;5082333;28;20045;-60
2021/03/17 12:28:52;;;;;;;3.47;0.88;;;8.20;49.60;;;;;;5083681;28;20114;-60
2021/03/17 12:31:20;;;;;;;3.30;1.25;;;8.70;47.80;;;;;;5085169;28;20115;-59
2021/03/17 12:33:52;;;;;;;2.35;1.02;;;9.30;47.30;;;;;;5084215;28;20064;-60
2021/03/17 12:36:20;;;;;;;2.45;0.45;;;9.70;46.40;;;;;;5085110;28;20601;-59
2021/03/17 12:38:47;;;;;;;0.88;0.40;;;9.90;43.70;;;;;;5076196;28;20265;-60
2021/03/17 12:41:15;;;;;;;2.80;0.90;;;10.40;42.00;;;;;;5093055;28;20052;-59
2021/03/17 12:43:42;;;;;;;2.33;0.70;;;10.60;42.20;;;;;;5083009;28;20051;-59
2021/03/17 12:46:09;;;;;;;3.80;1.40;;;10.60;41.60;;;;;;5084082;28;20091;-60
2021/03/17 12:48:38;;;;;;;1.77;0.30;;;10.30;42.00;;;;;;5074334;28;20049;-60
2021/03/17 12:51:05;;;;;;;1.95;1.10;;;9.90;41.80;;;;;;5083113;28;20056;-60
2021/03/17 12:53:33;;;;;;;2.08;0.60;;;9.50;44.10;;;;;;5084529;28;20048;-60
2021/03/17 12:56:00;;;;;;;2.17;0.70;;;9.20;44.50;;;;;;5082878;28;20052;-60
2021/03/17 12:58:30;;;;;;;3.05;0.57;;;9.00;44.40;;;;;;5084483;28;20044;-60
2021/03/17 13:00:58;;;;;;;0.77;0.43;;;9.00;44.70;;;;;;5076866;28;20056;-60
2021/03/17 13:03:28;;;;;;;3.28;1.73;;;9.00;45.30;;;;;;5084290;28;20048;-60
2021/03/17 13:05:57;;;;;;;4.30;0.50;;;9.20;45.50;;;;;;5083886;28;20359;-60
2021/03/17 13:08:26;;;;;;;1.48;0.50;;;9.30;44.30;;;;;;5084191;28;20086;-60
2021/03/17 13:10:56;;;;;;;1.20;0.40;;;9.40;44.30;;;;;;5080585;28;20362;-60
2021/03/17 13:13:29;;;;;;;3.22;1.00;;;9.30;44.20;;;;;;5082827;28;20052;-60
2021/03/17 13:15:56;;;;;;;3.25;0.77;;;9.10;45.00;;;;;;5082029;28;20150;-60
2021/03/17 13:18:24;;;;;;;3.30;1.00;;;9.00;46.30;;;;;;5081235;28;20044;-59
2021/03/17 13:20:51;;;;;;;1.27;0.47;;;8.70;47.50;;;;;;5079477;28;20055;-60